Nearby METAR Reports

 

ESSA - Arlanda, Stockholm, Sweden
Distance from station: NO 14km
Uppdaterad: 2021-09-27 00:20
Klart
Klart
 Vind från SO
Vind: SO 11 km/h
Temperatur: 9°C
Wind Chill: 7°C
Daggpunkt: 7°C
Luftfuktighet: 87%
Barometer: 1024 hPa
Summering: Klart
Visibility: greater than 10 km
2021/09/26 22:20 ESSA 262220Z 14006KT CAVOK 09/07 Q1024 NOSIG
ESSB - Bromma, Stockholm, Sweden
Distance from station: N 14km
Uppdaterad: 2021-09-27 00:20
Klart
Klart
 Vind från SO
Vind: SO 9 km/h
Temperatur: 10°C
Wind Chill: 9°C
Daggpunkt: 7°C
Luftfuktighet: 82%
Barometer: 1025 hPa
Clouds: Klart
Visibility: 10 km
2021/09/26 22:20 ESSB 262220Z AUTO 14005KT 9999 NCD 10/07 Q1025
 
KSFO - San Francisco, California, USA
Distance from station: NV 49km
Uppdaterad: 2021-09-26 23:56
Delvis molnigt
Delvis molnigt
 Vind från VNV
Vind: VNV 35 km/h
Temperatur: 18°C
Daggpunkt: 11°C
Luftfuktighet: 64%
Barometer: 1016.6 hPa
Clouds: Delvis molnigt
Visibility: 16 km
Cloud details: Delvis molnigt 518 m
2021/09/26 21:56 KSFO 262156Z 29019KT 10SM SCT017 18/11 A3002 RMK AO2 SLP166 T01830111